Terminal Aerodrome Forecast
Issued by NWS Cleveland, OH

Home | Current Version | Previous Version | Graphics & Text | Print | Product List | Glossary On
Versions: 1 2 3 4 5 6 7 8 9 10 11 12 13 14 15 16 17 18 19 20 21 22 23 24 25 26 27 28 29
846
FTUS41 KCLE 210857 AAA
TAFCLE
TAF AMD
KCLE 210857Z 2109/2212 23004KT P6SM SCT060 BKN100
     FM211600 32008KT P6SM SCT045
     FM220200 16005KT P6SM SCT200=

USA.gov is the U.S. government's official web portal to all federal, state and local government web resources and services.